Historique des mesures à Cassis (13260), France
Quotidien Résumé Janvier 6, 2020 Unités:  Métrique    US   Métrique/US
Quotidien Hebdomadaire Mensuel Annuel
  Maximum: Minimum: Moyenne:
Température: 31.8 °C 23.8 °C 27.7 °C
Point de rosée: 16.8 °C 5.8 °C 12.7 °C
Humidité: 63% 23% 41%
Vitesse du vent: 31km/h 0km/h 13km/h
Rafales: 53.3km/h - -
Vent- - SSW
Pression: 1010.6 hPa 1005.6 hPa -
Précipitations: 0.0 mm    
Historical Graphs
 
 
Mesures pour : Janvier 6, 2020
Heure Temperature Point de rosée Pression Vent Vitesse du vent Rafales Humidité Pluie (par heure)
00:11 24.3 °C 16.8 °C 1010.6 hPa Calm   2.2 km/h 63% 0.0 mm
01:11 24.3 °C 16.1 °C 1010.1 hPa WNW 14.8 km/h 14.8 km/h 60% 0.0 mm
02:11 26.5 °C 14.9 °C 1009.7 hPa NNW 4.3 km/h 20.9 km/h 49% 0.0 mm
03:11 26.4 °C 14.8 °C 1009.0 hPa West 10.4 km/h 21.2 km/h 49% 0.0 mm
04:11 25.6 °C 14.4 °C 1008.5 hPa NNW 2.5 km/h 5 km/h 50% 0.0 mm
05:11 25.2 °C 14.4 °C 1008.4 hPa Calm   6.5 km/h 51% 0.0 mm
06:11 23.8 °C 13.9 °C 1008.2 hPa NW 5 km/h 10.4 km/h 54% 0.0 mm
07:11 24.4 °C 13.4 °C 1008.5 hPa Calm   5.4 km/h 50% 0.0 mm
08:11 28.3 °C 14.2 °C 1008.5 hPa WNW 10.4 km/h 16.9 km/h 42% 0.0 mm
09:11 26.3 °C 14.7 °C 1008.5 hPa North 3.2 km/h 13.7 km/h 49% 0.0 mm
10:11 27.9 °C 15.8 °C 1008.5 hPa WNW 14.8 km/h 30.2 km/h 48% 0.0 mm
11:11 30.7 °C 16.3 °C 1008.2 hPa NNE 2.9 km/h 24.5 km/h 42% 0.0 mm
12:11 30.5 °C 16.5 °C 1008.0 hPa North 6.8 km/h 22.7 km/h 43% 0.0 mm
13:11 31.3 °C 16.1 °C 1007.6 hPa WNW 20.9 km/h 30.6 km/h 40% 0.0 mm
14:11 31.6 °C 15 °C 1007.4 hPa NNW 27.7 km/h 40.3 km/h 37% 0.0 mm
15:11 31.8 °C 13.9 °C 1006.9 hPa North 10.8 km/h 37.4 km/h 34% 0.0 mm
16:11 31.6 °C 11.9 °C 1006.9 hPa North 6.1 km/h 53.3 km/h 30% 0.0 mm
17:11 30.9 °C 11.3 °C 1006.2 hPa WSW 24.1 km/h 36.4 km/h 30% 0.0 mm
18:11 30.3 °C 7.9 °C 1005.8 hPa NW 31 km/h 38.2 km/h 25% 0.0 mm
19:11 29.3 °C 5.8 °C 1005.6 hPa WNW 29.5 km/h 42.8 km/h 23% 0.0 mm
20:11 28.1 °C 7.7 °C 1006.1 hPa North 22.3 km/h 52.2 km/h 28% 0.0 mm
21:11 26.4 °C 6.3 °C 1006.1 hPa NW 14.8 km/h 46.8 km/h 28% 0.0 mm
22:11 25.2 °C 6.9 °C 1006.5 hPa North 20.5 km/h 50.8 km/h 31% 0.0 mm
23:11 24.2 °C 6 °C 1006.8 hPa NW 28.1 km/h 43.2 km/h 31% 0.0 mm
Observations météo à CASSIS
WU-History script by Weather Underground - 2 mb